SUAA    
 082200Z 24005KT 9999 SCT013 SCT083 09/08 Q1018   
 SUCA    
 082200Z VRB03KT 9999 FEW030 09/05 Q1019    
 SUDU    
 082100Z 12006KT 9999 SCT012 BKN080 08/06 Q1018   
 SULS    
 082300Z 18010KT 9999 -RA FEW010 OVC070 09/08 Q1017  
 SUMU    
 082300Z 25003KT 9999 FEW020 BKN080 08/06 Q1019 TEMPO RA 
 SUSO    
 082100Z 24006KT 9999 FEW020 11/06 Q1018    
 SABE    
 082300Z VRB02KT 9999 BKN039 10/03 Q1020 NOSIG   
 SACO    
 082300Z 36004KT CAVOK 01/M02 Q1021 NOSIG    
 SADF    
 082300Z VRB01KT 9000 NSC 08/03 Q1020    
 SAEZ    
 082300Z VRB01KT CAVOK 05/02 Q1020 NOSIG    
 SAZB    
 081440Z 36010KT 9999 -RA SCT030 OVC050 05/04 Q1019  
 SAZM    
 020100Z 27003KT CAVOK 02/00 Q1017     
 SBPA    
 082300Z 27014KT 6000 -DZ BKN007 OVC015 13/12 Q1014  
 SGAS    
 082300Z 23004KT 9999 BKN020 OVC070 12/09 Q1021   
 SGES    
 082300Z 24005KT 8000 OVC012 11/10 Q1019 REDZ   
 SCCI    
 082300Z 31010KT 9999 FEW030 SCT220 M01/M03 Q0991 NOSIG  
 SCRM    
 082300Z 02020KT 9999 OVC010 M00/M00 Q1008 RESHSN NOSIG